sensor_id;sensor_type;location;lat;lon;timestamp;pressure;altitude;pressure_sealevel;temperature;humidity
45323;BME280;31382;50.200;8.674;2023-02-04T00:02:38;101653.34;;;10.44;58.27
45323;BME280;31382;50.200;8.674;2023-02-04T00:07:40;101661.00;;;10.39;58.49
45323;BME280;31382;50.200;8.674;2023-02-04T00:12:41;101648.28;;;10.31;58.23
45323;BME280;31382;50.200;8.674;2023-02-04T00:17:43;101655.31;;;10.12;57.97
45323;BME280;31382;50.200;8.674;2023-02-04T00:22:44;101648.81;;;10.15;57.90
45323;BME280;31382;50.200;8.674;2023-02-04T00:27:45;101662.09;;;10.07;57.75
45323;BME280;31382;50.200;8.674;2023-02-04T00:32:47;101673.84;;;10.06;57.63
45323;BME280;31382;50.200;8.674;2023-02-04T00:37:49;101673.09;;;9.94;57.70
45323;BME280;31382;50.200;8.674;2023-02-04T00:42:51;101675.38;;;9.99;57.72
45323;BME280;31382;50.200;8.674;2023-02-04T00:47:52;101679.75;;;10.00;57.67
45323;BME280;31382;50.200;8.674;2023-02-04T00:52:53;101677.63;;;9.93;57.80
45323;BME280;31382;50.200;8.674;2023-02-04T00:57:55;101688.22;;;9.95;57.64
45323;BME280;31382;50.200;8.674;2023-02-04T01:02:56;101680.63;;;10.10;57.32
45323;BME280;31382;50.200;8.674;2023-02-04T01:07:57;101693.47;;;10.06;57.27
45323;BME280;31382;50.200;8.674;2023-02-04T01:12:59;101701.28;;;10.09;57.35
45323;BME280;31382;50.200;8.674;2023-02-04T01:18:01;101707.75;;;10.07;57.32
45323;BME280;31382;50.200;8.674;2023-02-04T01:23:02;101713.53;;;9.92;57.42
45323;BME280;31382;50.200;8.674;2023-02-04T01:28:04;101719.94;;;10.01;57.30
45323;BME280;31382;50.200;8.674;2023-02-04T01:33:05;101728.28;;;10.08;56.92
45323;BME280;31382;50.200;8.674;2023-02-04T01:38:06;101728.69;;;10.03;56.86
45323;BME280;31382;50.200;8.674;2023-02-04T01:43:09;101738.56;;;10.03;56.96
45323;BME280;31382;50.200;8.674;2023-02-04T01:48:11;101746.25;;;10.07;56.75
45323;BME280;31382;50.200;8.674;2023-02-04T01:53:18;101748.78;;;9.99;56.74
45323;BME280;31382;50.200;8.674;2023-02-04T01:58:20;101753.59;;;10.15;56.65
45323;BME280;31382;50.200;8.674;2023-02-04T02:03:21;101765.63;;;10.21;56.16
45323;BME280;31382;50.200;8.674;2023-02-04T02:08:23;101770.34;;;10.38;55.70
45323;BME280;31382;50.200;8.674;2023-02-04T02:13:24;101770.19;;;10.30;55.88
45323;BME280;31382;50.200;8.674;2023-02-04T02:18:26;101780.06;;;10.20;56.10
45323;BME280;31382;50.200;8.674;2023-02-04T02:28:48;101781.91;;;10.19;55.65
45323;BME280;31382;50.200;8.674;2023-02-04T02:33:50;101781.16;;;10.07;55.74
45323;BME280;31382;50.200;8.674;2023-02-04T02:38:52;101786.06;;;9.92;55.76
45323;BME280;31382;50.200;8.674;2023-02-04T02:43:53;101792.22;;;9.83;56.12
45323;BME280;31382;50.200;8.674;2023-02-04T02:48:55;101791.69;;;9.80;56.08
45323;BME280;31382;50.200;8.674;2023-02-04T02:53:57;101804.09;;;9.81;56.31
45323;BME280;31382;50.200;8.674;2023-02-04T02:59:12;101799.78;;;9.89;55.84
45323;BME280;31382;50.200;8.674;2023-02-04T03:04:14;101800.56;;;9.80;56.21
45323;BME280;31382;50.200;8.674;2023-02-04T03:09:17;101806.50;;;9.74;56.33
45323;BME280;31382;50.200;8.674;2023-02-04T03:14:19;101812.66;;;9.65;56.56
45323;BME280;31382;50.200;8.674;2023-02-04T03:19:23;101811.63;;;9.56;56.44
45323;BME280;31382;50.200;8.674;2023-02-04T03:24:26;101821.13;;;9.39;57.03
45323;BME280;31382;50.200;8.674;2023-02-04T03:29:27;101836.69;;;9.45;56.73
45323;BME280;31382;50.200;8.674;2023-02-04T03:34:30;101834.34;;;9.52;56.57
45323;BME280;31382;50.200;8.674;2023-02-04T03:39:31;101860.41;;;9.40;56.89
45323;BME280;31382;50.200;8.674;2023-02-04T03:44:32;101862.38;;;9.38;57.07
45323;BME280;31382;50.200;8.674;2023-02-04T03:49:34;101864.53;;;9.44;56.92
45323;BME280;31382;50.200;8.674;2023-02-04T03:54:36;101864.84;;;9.51;56.57
45323;BME280;31382;50.200;8.674;2023-02-04T03:59:37;101863.66;;;9.44;56.59
45323;BME280;31382;50.200;8.674;2023-02-04T04:04:39;101870.47;;;9.27;57.02
45323;BME280;31382;50.200;8.674;2023-02-04T04:09:40;101887.50;;;9.37;56.57
45323;BME280;31382;50.200;8.674;2023-02-04T04:14:41;101889.22;;;9.38;56.78
45323;BME280;31382;50.200;8.674;2023-02-04T04:19:45;101882.00;;;9.39;56.64
45323;BME280;31382;50.200;8.674;2023-02-04T04:24:46;101885.75;;;9.26;56.86
45323;BME280;31382;50.200;8.674;2023-02-04T04:29:48;101891.91;;;9.06;57.22
45323;BME280;31382;50.200;8.674;2023-02-04T04:34:49;101885.38;;;8.99;57.46
45323;BME280;31382;50.200;8.674;2023-02-04T04:39:50;101896.84;;;8.89;58.12
45323;BME280;31382;50.200;8.674;2023-02-04T04:44:52;101881.28;;;8.83;58.03
45323;BME280;31382;50.200;8.674;2023-02-04T04:49:53;101884.28;;;8.90;58.51
45323;BME280;31382;50.200;8.674;2023-02-04T04:54:54;101887.59;;;8.82;58.63
45323;BME280;31382;50.200;8.674;2023-02-04T04:59:56;101897.59;;;8.80;58.38
45323;BME280;31382;50.200;8.674;2023-02-04T05:04:57;101904.50;;;8.94;58.61
45323;BME280;31382;50.200;8.674;2023-02-04T05:09:58;101916.94;;;9.06;57.80
45323;BME280;31382;50.200;8.674;2023-02-04T05:15:00;101923.16;;;8.96;58.11
45323;BME280;31382;50.200;8.674;2023-02-04T05:20:02;101924.59;;;9.00;58.07
45323;BME280;31382;50.200;8.674;2023-02-04T05:25:04;101917.41;;;9.00;58.19
45323;BME280;31382;50.200;8.674;2023-02-04T05:30:06;101911.41;;;9.08;58.04
45323;BME280;31382;50.200;8.674;2023-02-04T05:35:07;101926.50;;;9.20;58.29
45323;BME280;31382;50.200;8.674;2023-02-04T05:40:09;101940.69;;;9.32;57.67
45323;BME280;31382;50.200;8.674;2023-02-04T05:45:14;101942.03;;;9.38;57.92
45323;BME280;31382;50.200;8.674;2023-02-04T05:50:16;101942.03;;;9.38;58.04
45323;BME280;31382;50.200;8.674;2023-02-04T05:55:17;101945.81;;;9.35;58.02
45323;BME280;31382;50.200;8.674;2023-02-04T06:00:19;101956.63;;;9.45;58.09
45323;BME280;31382;50.200;8.674;2023-02-04T06:05:20;101962.66;;;9.37;58.32
45323;BME280;31382;50.200;8.674;2023-02-04T06:10:23;101968.00;;;9.37;58.34
45323;BME280;31382;50.200;8.674;2023-02-04T06:15:24;101980.84;;;9.33;58.39
45323;BME280;31382;50.200;8.674;2023-02-04T06:20:25;101979.38;;;9.29;58.80
45323;BME280;31382;50.200;8.674;2023-02-04T06:25:27;101978.22;;;9.11;59.59
45323;BME280;31382;50.200;8.674;2023-02-04T06:30:28;101982.75;;;9.10;59.76
45323;BME280;31382;50.200;8.674;2023-02-04T06:35:30;101986.66;;;9.06;60.04
45323;BME280;31382;50.200;8.674;2023-02-04T06:40:31;101999.81;;;9.09;59.65
45323;BME280;31382;50.200;8.674;2023-02-04T06:45:33;102005.47;;;8.95;60.16
45323;BME280;31382;50.200;8.674;2023-02-04T06:50:36;101996.19;;;8.99;60.13
45323;BME280;31382;50.200;8.674;2023-02-04T06:55:37;102001.66;;;9.09;60.10
45323;BME280;31382;50.200;8.674;2023-02-04T07:00:39;101997.03;;;9.00;60.81
45323;BME280;31382;50.200;8.674;2023-02-04T07:05:40;102001.44;;;8.89;60.89
45323;BME280;31382;50.200;8.674;2023-02-04T07:10:41;102018.38;;;8.90;61.21
45323;BME280;31382;50.200;8.674;2023-02-04T07:15:43;102024.97;;;8.97;61.06
45323;BME280;31382;50.200;8.674;2023-02-04T07:20:44;102042.38;;;9.03;60.83
45323;BME280;31382;50.200;8.674;2023-02-04T07:25:46;102048.94;;;9.10;61.21
45323;BME280;31382;50.200;8.674;2023-02-04T07:30:47;102068.59;;;9.10;60.86
45323;BME280;31382;50.200;8.674;2023-02-04T07:35:49;102065.41;;;9.05;60.76
45323;BME280;31382;50.200;8.674;2023-02-04T07:40:50;102075.41;;;9.03;61.11
45323;BME280;31382;50.200;8.674;2023-02-04T07:45:52;102078.84;;;8.83;61.90
45323;BME280;31382;50.200;8.674;2023-02-04T07:50:53;102081.28;;;8.97;61.13
45323;BME280;31382;50.200;8.674;2023-02-04T07:55:55;102087.50;;;8.98;61.27
45323;BME280;31382;50.200;8.674;2023-02-04T08:00:56;102110.19;;;9.05;61.78
45323;BME280;31382;50.200;8.674;2023-02-04T08:05:57;102103.97;;;8.93;62.00
45323;BME280;31382;50.200;8.674;2023-02-04T08:10:59;102105.91;;;8.91;61.84
45323;BME280;31382;50.200;8.674;2023-02-04T08:16:00;102115.78;;;9.13;62.02
45323;BME280;31382;50.200;8.674;2023-02-04T08:21:02;102124.53;;;9.38;61.30
45323;BME280;31382;50.200;8.674;2023-02-04T08:26:05;102133.56;;;9.48;61.40
45323;BME280;31382;50.200;8.674;2023-02-04T08:31:06;102129.03;;;9.60;61.32
45323;BME280;31382;50.200;8.674;2023-02-04T08:36:12;102129.47;;;9.65;61.39
45323;BME280;31382;50.200;8.674;2023-02-04T08:41:13;102146.94;;;9.70;61.38
45323;BME280;31382;50.200;8.674;2023-02-04T08:46:14;102155.47;;;9.76;61.29
45323;BME280;31382;50.200;8.674;2023-02-04T08:51:16;102159.34;;;9.83;61.24
45323;BME280;31382;50.200;8.674;2023-02-04T08:56:17;102161.28;;;9.92;61.18
45323;BME280;31382;50.200;8.674;2023-02-04T09:01:20;102162.91;;;10.16;60.58
45323;BME280;31382;50.200;8.674;2023-02-04T09:06:22;102164.19;;;10.32;60.41
45323;BME280;31382;50.200;8.674;2023-02-04T09:11:23;102180.38;;;10.42;60.34
45323;BME280;31382;50.200;8.674;2023-02-04T09:16:24;102189.19;;;10.65;59.71
45323;BME280;31382;50.200;8.674;2023-02-04T09:21:26;102181.66;;;10.80;59.55
45323;BME280;31382;50.200;8.674;2023-02-04T09:26:27;102188.13;;;10.99;59.21
45323;BME280;31382;50.200;8.674;2023-02-04T09:31:29;102190.53;;;11.02;58.92
45323;BME280;31382;50.200;8.674;2023-02-04T09:36:30;102192.50;;;11.21;58.47
45323;BME280;31382;50.200;8.674;2023-02-04T09:41:38;102204.16;;;11.31;58.30
45323;BME280;31382;50.200;8.674;2023-02-04T09:46:44;102205.38;;;11.48;58.39
45323;BME280;31382;50.200;8.674;2023-02-04T09:51:47;102228.00;;;11.36;58.33
45323;BME280;31382;50.200;8.674;2023-02-04T09:56:51;102240.94;;;11.21;58.61
45323;BME280;31382;50.200;8.674;2023-02-04T10:02:01;102256.50;;;11.17;58.99
45323;BME280;31382;50.200;8.674;2023-02-04T10:07:08;102259.78;;;11.21;58.73
45323;BME280;31382;50.200;8.674;2023-02-04T10:12:12;102269.66;;;11.31;58.40
45323;BME280;31382;50.200;8.674;2023-02-04T10:17:18;102273.63;;;11.37;58.31
45323;BME280;31382;50.200;8.674;2023-02-04T10:22:20;102261.47;;;11.43;57.74
45323;BME280;31382;50.200;8.674;2023-02-04T10:27:22;102266.03;;;11.52;57.29
45323;BME280;31382;50.200;8.674;2023-02-04T10:32:29;102254.47;;;11.61;57.26
45323;BME280;31382;50.200;8.674;2023-02-04T10:37:31;102259.59;;;11.74;56.59
45323;BME280;31382;50.200;8.674;2023-02-04T10:42:33;102262.06;;;11.87;55.85
45323;BME280;31382;50.200;8.674;2023-02-04T10:47:34;102272.19;;;12.04;55.23
45323;BME280;31382;50.200;8.674;2023-02-04T10:52:38;102268.38;;;11.97;55.46
45323;BME280;31382;50.200;8.674;2023-02-04T10:57:43;102268.75;;;11.93;55.22
45323;BME280;31382;50.200;8.674;2023-02-04T11:03:01;102270.75;;;11.90;55.01
45323;BME280;31382;50.200;8.674;2023-02-04T11:13:37;102268.38;;;11.97;54.27
45323;BME280;31382;50.200;8.674;2023-02-04T11:23:49;102277.19;;;12.09;54.13
45323;BME280;31382;50.200;8.674;2023-02-04T11:39:15;102267.66;;;11.95;53.51
45323;BME280;31382;50.200;8.674;2023-02-04T11:44:17;102272.53;;;12.11;53.47
45323;BME280;31382;50.200;8.674;2023-02-04T11:49:19;102278.91;;;12.20;52.71
45323;BME280;31382;50.200;8.674;2023-02-04T11:54:21;102278.34;;;12.26;52.63
45323;BME280;31382;50.200;8.674;2023-02-04T11:59:23;102271.28;;;12.35;52.21
45323;BME280;31382;50.200;8.674;2023-02-04T12:04:25;102283.91;;;12.44;52.63
45323;BME280;31382;50.200;8.674;2023-02-04T12:09:28;102280.38;;;12.43;51.77
45323;BME280;31382;50.200;8.674;2023-02-04T12:14:40;102281.22;;;12.44;52.16
45323;BME280;31382;50.200;8.674;2023-02-04T12:19:42;102275.81;;;12.54;52.19
45323;BME280;31382;50.200;8.674;2023-02-04T12:24:43;102277.25;;;12.58;52.03
45323;BME280;31382;50.200;8.674;2023-02-04T12:29:45;102281.09;;;12.65;51.58
45323;BME280;31382;50.200;8.674;2023-02-04T12:34:46;102280.06;;;12.85;50.96
45323;BME280;31382;50.200;8.674;2023-02-04T12:39:47;102276.03;;;13.19;50.59
45323;BME280;31382;50.200;8.674;2023-02-04T12:44:49;102280.34;;;13.21;50.88
45323;BME280;31382;50.200;8.674;2023-02-04T12:49:50;102289.25;;;13.41;50.33
45323;BME280;31382;50.200;8.674;2023-02-04T12:54:52;102286.38;;;13.53;49.75
45323;BME280;31382;50.200;8.674;2023-02-04T12:59:53;102290.22;;;13.50;49.57
45323;BME280;31382;50.200;8.674;2023-02-04T13:04:57;102301.00;;;13.60;49.37
45323;BME280;31382;50.200;8.674;2023-02-04T13:09:59;102286.53;;;13.51;49.21
45323;BME280;31382;50.200;8.674;2023-02-04T13:15:01;102281.28;;;13.40;48.93
45323;BME280;31382;50.200;8.674;2023-02-04T13:20:04;102276.88;;;13.39;48.92
45323;BME280;31382;50.200;8.674;2023-02-04T13:25:06;102282.00;;;13.42;48.62
45323;BME280;31382;50.200;8.674;2023-02-04T13:30:08;102283.41;;;13.46;48.36
45323;BME280;31382;50.200;8.674;2023-02-04T13:35:11;102276.00;;;13.48;48.30
45323;BME280;31382;50.200;8.674;2023-02-04T13:40:12;102276.16;;;13.37;48.41
45323;BME280;31382;50.200;8.674;2023-02-04T13:45:13;102274.50;;;13.36;48.38
45323;BME280;31382;50.200;8.674;2023-02-04T13:50:16;102266.53;;;13.34;47.82
45323;BME280;31382;50.200;8.674;2023-02-04T13:55:17;102272.47;;;13.28;48.24
45323;BME280;31382;50.200;8.674;2023-02-04T14:00:19;102272.63;;;13.26;47.66
45323;BME280;31382;50.200;8.674;2023-02-04T14:05:20;102285.63;;;13.03;48.29
45323;BME280;31382;50.200;8.674;2023-02-04T14:10:22;102285.47;;;12.85;48.43
45323;BME280;31382;50.200;8.674;2023-02-04T14:15:25;102290.03;;;12.75;47.98
45323;BME280;31382;50.200;8.674;2023-02-04T14:20:26;102285.19;;;12.59;48.40
45323;BME280;31382;50.200;8.674;2023-02-04T14:25:27;102287.47;;;12.35;48.26
45323;BME280;31382;50.200;8.674;2023-02-04T14:30:29;102297.38;;;12.24;48.49
45323;BME280;31382;50.200;8.674;2023-02-04T14:35:32;102286.44;;;12.26;48.39
45323;BME280;31382;50.200;8.674;2023-02-04T14:40:33;102281.22;;;12.24;48.32
45323;BME280;31382;50.200;8.674;2023-02-04T14:45:36;102289.81;;;12.18;48.54
45323;BME280;31382;50.200;8.674;2023-02-04T14:50:38;102292.09;;;12.13;48.50
45323;BME280;31382;50.200;8.674;2023-02-04T14:55:39;102296.91;;;12.09;48.00
45323;BME280;31382;50.200;8.674;2023-02-04T15:00:40;102297.47;;;12.03;47.77
45323;BME280;31382;50.200;8.674;2023-02-04T15:05:42;102299.03;;;12.06;47.87
45323;BME280;31382;50.200;8.674;2023-02-04T15:10:43;102295.34;;;12.07;48.13
45323;BME280;31382;50.200;8.674;2023-02-04T15:15:45;102304.72;;;12.03;48.20
45323;BME280;31382;50.200;8.674;2023-02-04T15:20:46;102302.41;;;11.98;48.50
45323;BME280;31382;50.200;8.674;2023-02-04T15:25:48;102302.13;;;11.92;48.44
45323;BME280;31382;50.200;8.674;2023-02-04T15:30:51;102301.31;;;11.80;47.99
45323;BME280;31382;50.200;8.674;2023-02-04T15:35:53;102308.41;;;11.71;48.40
45323;BME280;31382;50.200;8.674;2023-02-04T15:40:54;102313.53;;;11.53;48.70
45323;BME280;31382;50.200;8.674;2023-02-04T15:45:56;102313.63;;;11.42;49.04
45323;BME280;31382;50.200;8.674;2023-02-04T15:50:58;102319.19;;;11.29;49.66
45323;BME280;31382;50.200;8.674;2023-02-04T15:55:59;102333.41;;;11.10;50.82
45323;BME280;31382;50.200;8.674;2023-02-04T16:01:01;102343.22;;;11.00;50.69
45323;BME280;31382;50.200;8.674;2023-02-04T16:06:02;102340.31;;;10.91;50.94
45323;BME280;31382;50.200;8.674;2023-02-04T16:11:05;102348.31;;;10.82;51.12
45323;BME280;31382;50.200;8.674;2023-02-04T16:16:07;102350.66;;;10.75;51.21
45323;BME280;31382;50.200;8.674;2023-02-04T16:21:08;102349.97;;;10.62;51.44
45323;BME280;31382;50.200;8.674;2023-02-04T16:26:09;102352.44;;;10.54;51.82
45323;BME280;31382;50.200;8.674;2023-02-04T16:31:11;102364.22;;;10.41;52.22
45323;BME280;31382;50.200;8.674;2023-02-04T16:36:13;102370.91;;;10.24;52.35
45323;BME280;31382;50.200;8.674;2023-02-04T16:41:14;102373.63;;;10.13;52.75
45323;BME280;31382;50.200;8.674;2023-02-04T16:46:16;102371.66;;;9.92;53.09
45323;BME280;31382;50.200;8.674;2023-02-04T16:51:18;102374.09;;;9.84;53.21
45323;BME280;31382;50.200;8.674;2023-02-04T16:56:20;102390.31;;;9.71;53.53
45323;BME280;31382;50.200;8.674;2023-02-04T17:01:21;102381.53;;;9.58;53.86
45323;BME280;31382;50.200;8.674;2023-02-04T17:06:25;102386.50;;;9.51;53.79
45323;BME280;31382;50.200;8.674;2023-02-04T17:11:26;102388.19;;;9.41;54.09
45323;BME280;31382;50.200;8.674;2023-02-04T17:16:31;102399.28;;;9.37;54.10
45323;BME280;31382;50.200;8.674;2023-02-04T17:21:33;102395.00;;;9.34;54.46
45323;BME280;31382;50.200;8.674;2023-02-04T17:26:37;102393.66;;;9.28;55.40
45323;BME280;31382;50.200;8.674;2023-02-04T17:31:39;102395.69;;;9.25;55.04
45323;BME280;31382;50.200;8.674;2023-02-04T17:36:43;102404.72;;;9.24;55.00
45323;BME280;31382;50.200;8.674;2023-02-04T17:41:44;102404.72;;;9.24;55.12
45323;BME280;31382;50.200;8.674;2023-02-04T17:46:46;102412.75;;;9.24;54.96
45323;BME280;31382;50.200;8.674;2023-02-04T17:51:47;102414.94;;;9.19;54.87
45323;BME280;31382;50.200;8.674;2023-02-04T17:56:49;102417.84;;;9.16;55.13
45323;BME280;31382;50.200;8.674;2023-02-04T18:01:50;102428.69;;;9.14;55.06
45323;BME280;31382;50.200;8.674;2023-02-04T18:06:52;102424.66;;;9.08;55.04
45323;BME280;31382;50.200;8.674;2023-02-04T18:11:53;102419.53;;;9.05;54.50
45323;BME280;31382;50.200;8.674;2023-02-04T18:16:57;102427.56;;;9.05;54.27
45323;BME280;31382;50.200;8.674;2023-02-04T18:21:58;102431.09;;;9.06;54.38
45323;BME280;31382;50.200;8.674;2023-02-04T18:27:07;102426.72;;;9.05;54.09
45323;BME280;31382;50.200;8.674;2023-02-04T18:32:19;102435.72;;;9.04;54.65
45323;BME280;31382;50.200;8.674;2023-02-04T18:37:33;102432.66;;;8.97;54.24
45323;BME280;31382;50.200;8.674;2023-02-04T18:42:41;102435.94;;;8.77;54.93
45323;BME280;31382;50.200;8.674;2023-02-04T18:47:43;102436.56;;;8.80;54.30
45323;BME280;31382;50.200;8.674;2023-02-04T18:52:45;102426.59;;;8.82;54.12
45323;BME280;31382;50.200;8.674;2023-02-04T18:57:47;102425.63;;;8.83;53.67
45323;BME280;31382;50.200;8.674;2023-02-04T19:02:54;102429.06;;;8.85;54.37
45323;BME280;31382;50.200;8.674;2023-02-04T19:08:50;102425.75;;;8.82;54.15
45323;BME280;31382;50.200;8.674;2023-02-04T19:13:44;102424.59;;;8.73;54.69
45323;BME280;31382;50.200;8.674;2023-02-04T19:18:45;102431.06;;;8.58;54.63
45323;BME280;31382;50.200;8.674;2023-02-04T19:23:48;102428.78;;;8.64;54.55
45323;BME280;31382;50.200;8.674;2023-02-04T19:28:51;102432.13;;;8.68;54.66
45323;BME280;31382;50.200;8.674;2023-02-04T19:33:52;102435.31;;;8.73;54.79
45323;BME280;31382;50.200;8.674;2023-02-04T19:38:58;102418.34;;;8.72;54.74
45323;BME280;31382;50.200;8.674;2023-02-04T19:49:24;102439.81;;;8.72;54.88
45323;BME280;31382;50.200;8.674;2023-02-04T19:54:38;102445.06;;;8.74;54.39
45323;BME280;31382;50.200;8.674;2023-02-04T19:59:39;102452.91;;;8.77;54.57
45323;BME280;31382;50.200;8.674;2023-02-04T20:04:43;102454.09;;;8.73;54.84
45323;BME280;31382;50.200;8.674;2023-02-04T20:09:45;102453.34;;;8.71;54.72
45323;BME280;31382;50.200;8.674;2023-02-04T20:19:50;102452.72;;;8.67;54.43
45323;BME280;31382;50.200;8.674;2023-02-04T20:30:22;102472.88;;;8.73;54.71
45323;BME280;31382;50.200;8.674;2023-02-04T20:40:34;102477.59;;;8.69;54.07
45323;BME280;31382;50.200;8.674;2023-02-04T20:50:48;102475.00;;;8.68;54.11
45323;BME280;31382;50.200;8.674;2023-02-04T20:55:57;102475.00;;;8.68;54.13
45323;BME280;31382;50.200;8.674;2023-02-04T21:06:30;102472.78;;;8.62;53.99
45323;BME280;31382;50.200;8.674;2023-02-04T21:11:32;102473.72;;;8.61;54.19
45323;BME280;31382;50.200;8.674;2023-02-04T21:16:33;102473.97;;;8.58;54.04
45323;BME280;31382;50.200;8.674;2023-02-04T21:21:35;102475.38;;;8.50;54.74
45323;BME280;31382;50.200;8.674;2023-02-04T21:26:36;102484.50;;;8.48;54.52
45323;BME280;31382;50.200;8.674;2023-02-04T21:31:38;102481.16;;;8.44;55.22
45323;BME280;31382;50.200;8.674;2023-02-04T21:36:39;102482.31;;;8.40;55.17
45323;BME280;31382;50.200;8.674;2023-02-04T21:41:41;102482.00;;;8.32;55.18
45323;BME280;31382;50.200;8.674;2023-02-04T21:46:42;102485.03;;;8.27;55.46
45323;BME280;31382;50.200;8.674;2023-02-04T21:51:43;102475.25;;;8.26;55.54
45323;BME280;31382;50.200;8.674;2023-02-04T21:56:45;102480.72;;;8.25;55.88
45323;BME280;31382;50.200;8.674;2023-02-04T22:01:46;102476.34;;;8.24;55.70
45323;BME280;31382;50.200;8.674;2023-02-04T22:06:47;102479.97;;;8.23;55.84
45323;BME280;31382;50.200;8.674;2023-02-04T22:11:49;102488.00;;;8.23;55.67
45323;BME280;31382;50.200;8.674;2023-02-04T22:16:50;102483.41;;;8.25;56.29
45323;BME280;31382;50.200;8.674;2023-02-04T22:21:51;102478.28;;;8.22;56.09
45323;BME280;31382;50.200;8.674;2023-02-04T22:26:53;102477.53;;;8.20;56.08
45323;BME280;31382;50.200;8.674;2023-02-04T22:31:55;102468.09;;;8.14;56.43
45323;BME280;31382;50.200;8.674;2023-02-04T22:36:56;102474.41;;;8.13;56.43
45323;BME280;31382;50.200;8.674;2023-02-04T22:41:57;102470.22;;;8.09;55.80
45323;BME280;31382;50.200;8.674;2023-02-04T22:46:59;102469.72;;;8.04;56.48
45323;BME280;31382;50.200;8.674;2023-02-04T22:52:01;102465.84;;;7.95;55.96
45323;BME280;31382;50.200;8.674;2023-02-04T22:57:03;102472.69;;;7.86;56.15
45323;BME280;31382;50.200;8.674;2023-02-04T23:02:04;102470.53;;;7.79;56.22
45323;BME280;31382;50.200;8.674;2023-02-04T23:07:06;102469.47;;;7.68;56.26
45323;BME280;31382;50.200;8.674;2023-02-04T23:12:08;102464.28;;;7.52;56.59
45323;BME280;31382;50.200;8.674;2023-02-04T23:17:14;102469.34;;;7.30;57.21
45323;BME280;31382;50.200;8.674;2023-02-04T23:22:16;102477.44;;;7.15;58.12
45323;BME280;31382;50.200;8.674;2023-02-04T23:27:17;102474.84;;;7.14;58.03
45323;BME280;31382;50.200;8.674;2023-02-04T23:32:18;102493.91;;;6.95;58.03
45323;BME280;31382;50.200;8.674;2023-02-04T23:37:20;102486.97;;;6.92;58.33
45323;BME280;31382;50.200;8.674;2023-02-04T23:42:21;102477.69;;;6.98;58.47
45323;BME280;31382;50.200;8.674;2023-02-04T23:47:24;102469.66;;;6.98;58.53
45323;BME280;31382;50.200;8.674;2023-02-04T23:52:25;102465.56;;;6.92;58.81
45323;BME280;31382;50.200;8.674;2023-02-04T23:57:26;102474.97;;;6.85;58.80
